createdAt,value
2022-09-07T00:03:06.065Z,8.19
2022-09-07T00:08:09.250Z,8.16
2022-09-07T00:13:12.030Z,8.09
2022-09-07T00:18:14.934Z,8.02
2022-09-07T00:23:17.764Z,7.96
2022-09-07T00:28:20.635Z,7.94
2022-09-07T00:33:23.431Z,7.93
2022-09-07T00:38:26.735Z,7.91
2022-09-07T00:43:36.269Z,7.89
2022-09-07T00:49:02.879Z,7.84
2022-09-07T00:54:21.348Z,7.81
2022-09-07T00:59:31.780Z,7.77
2022-09-07T01:04:36.860Z,7.70
2022-09-07T01:09:40.832Z,7.63
2022-09-07T01:14:50.396Z,7.58
2022-09-07T01:20:30.436Z,7.52
2022-09-07T01:26:04.129Z,7.41
2022-09-07T01:31:54.810Z,7.32
2022-09-07T01:37:21.890Z,7.26
2022-09-07T01:42:56.850Z,7.24
2022-09-07T01:48:06.233Z,7.24
2022-09-07T01:53:26.043Z,7.21
2022-09-07T01:58:41.029Z,7.18
2022-09-07T02:03:54.376Z,7.18
2022-09-07T02:09:03.575Z,7.16
2022-09-07T02:14:14.747Z,7.11
2022-09-07T02:19:20.934Z,7.09
2022-09-07T02:24:39.172Z,7.09
2022-09-07T02:29:43.940Z,7.09
2022-09-07T02:34:46.716Z,7.07
2022-09-07T02:39:49.785Z,7.06
2022-09-07T02:44:52.877Z,7.02
2022-09-07T02:50:13.838Z,6.98
2022-09-07T02:55:34.483Z,6.92
2022-09-07T03:01:12.936Z,6.83
2022-09-07T03:06:25.824Z,6.77
2022-09-07T03:11:30.134Z,6.75
2022-09-07T03:16:33.571Z,6.73
2022-09-07T03:21:36.383Z,6.66
2022-09-07T03:26:43.791Z,6.56
2022-09-07T03:31:46.923Z,6.82
2022-09-07T03:36:49.648Z,7.20
2022-09-07T03:41:52.746Z,7.54
2022-09-07T03:46:55.554Z,7.75
2022-09-07T03:51:58.401Z,7.99
2022-09-07T03:57:01.145Z,8.06
2022-09-07T04:02:04.189Z,8.04
2022-09-07T04:07:07.184Z,8.03
2022-09-07T04:12:09.954Z,8.03
2022-09-07T04:17:13.228Z,8.05
2022-09-07T04:22:16.193Z,8.07
2022-09-07T04:27:18.933Z,8.12
2022-09-07T04:32:22.304Z,8.15
2022-09-07T04:37:25.137Z,8.21
2022-09-07T04:42:27.941Z,8.22
2022-09-07T04:47:31.242Z,8.26
2022-09-07T04:52:33.976Z,8.32
2022-09-07T04:57:37.262Z,8.52
2022-09-07T05:02:40.078Z,8.71
2022-09-07T05:07:43.228Z,8.91
2022-09-07T05:12:45.958Z,9.18
2022-09-07T05:17:50.278Z,9.39
2022-09-07T05:22:59.739Z,9.55
2022-09-07T05:28:04.141Z,9.72
2022-09-07T05:33:08.281Z,9.86
2022-09-07T05:38:11.104Z,10.10
2022-09-07T05:43:13.940Z,10.31
2022-09-07T05:48:16.733Z,10.58
2022-09-07T05:53:20.775Z,11.03
2022-09-07T05:58:23.654Z,13.80
2022-09-07T06:03:26.597Z,17.98
2022-09-07T06:08:30.274Z,21.45
2022-09-07T06:13:33.805Z,23.99
2022-09-07T06:18:39.550Z,25.48
2022-09-07T06:23:43.625Z,27.04
2022-09-07T06:28:50.126Z,28.13
2022-09-07T06:33:55.040Z,27.87
2022-09-07T06:39:01.570Z,25.31
2022-09-07T06:44:04.401Z,22.94
2022-09-07T06:49:07.287Z,21.22
2022-09-07T06:59:33.010Z,19.04
2022-09-07T07:04:40.484Z,18.44
2022-09-07T07:09:44.893Z,18.01
2022-09-07T07:14:47.931Z,17.79
2022-09-07T07:19:50.793Z,19.26
2022-09-07T07:24:57.222Z,22.55
2022-09-07T07:30:00.289Z,24.93
2022-09-07T07:35:03.589Z,26.94
2022-09-07T07:40:18.529Z,28.52
2022-09-07T07:50:57.825Z,30.42
2022-09-07T07:56:02.445Z,30.75
2022-09-07T08:01:09.190Z,30.69
2022-09-07T08:06:15.190Z,30.72
2022-09-07T08:11:20.371Z,30.47
2022-09-07T08:16:23.359Z,30.05
2022-09-07T08:21:26.456Z,29.54
2022-09-07T08:26:30.838Z,29.25
2022-09-07T08:31:33.683Z,28.82
2022-09-07T08:36:36.518Z,28.44
2022-09-07T08:41:57.591Z,27.60
2022-09-07T08:47:04.503Z,27.13
2022-09-07T08:52:45.975Z,26.95
2022-09-07T08:57:57.947Z,26.74
2022-09-07T09:08:50.700Z,26.27
2022-09-07T09:14:19.028Z,25.84
2022-09-07T09:19:35.732Z,25.14
2022-09-07T09:24:47.156Z,24.28
2022-09-07T09:29:53.355Z,23.67
2022-09-07T09:35:13.403Z,22.84
2022-09-07T09:40:26.278Z,22.40
2022-09-07T09:46:12.252Z,22.18
2022-09-07T09:56:22.971Z,21.44
2022-09-07T10:01:35.137Z,21.10
2022-09-07T10:06:38.689Z,20.93
2022-09-07T10:12:06.275Z,20.84
2022-09-07T10:17:25.597Z,20.66
2022-09-07T10:22:36.524Z,20.47
2022-09-07T10:27:40.926Z,20.39
2022-09-07T10:33:17.179Z,20.27
2022-09-07T10:38:26.216Z,20.08
2022-09-07T10:43:48.485Z,19.87
2022-09-07T10:49:06.460Z,19.73
2022-09-07T10:54:35.317Z,19.62
2022-09-07T11:00:12.500Z,19.51
2022-09-07T11:05:36.059Z,19.30
2022-09-07T11:10:52.764Z,19.10
2022-09-07T11:16:00.627Z,19.02
2022-09-07T11:21:12.237Z,18.93
2022-09-07T11:26:55.765Z,18.90
2022-09-07T11:32:15.537Z,18.97
2022-09-07T11:37:37.563Z,19.00
2022-09-07T11:42:48.226Z,19.05
2022-09-07T11:47:57.963Z,19.01
2022-09-07T11:53:28.739Z,19.00
2022-09-07T11:58:56.382Z,19.05
2022-09-07T12:04:15.464Z,19.13
2022-09-07T12:09:50.982Z,19.20
2022-09-07T12:15:13.198Z,19.14
2022-09-07T12:20:18.776Z,19.16
2022-09-07T12:25:22.038Z,19.16
2022-09-07T12:30:24.828Z,19.12
2022-09-07T12:35:28.304Z,19.11
2022-09-07T12:40:34.075Z,19.18
2022-09-07T12:45:36.755Z,19.22
2022-09-07T12:50:59.114Z,19.29
2022-09-07T12:56:16.408Z,19.34
2022-09-07T13:01:40.663Z,19.38
2022-09-07T13:07:05.309Z,19.37
2022-09-07T13:17:56.077Z,19.43
2022-09-07T13:23:25.636Z,19.42
2022-09-07T13:28:52.291Z,19.38
2022-09-07T13:33:57.154Z,19.39
2022-09-07T13:39:00.250Z,19.33
2022-09-07T13:44:06.774Z,19.34
2022-09-07T13:49:27.506Z,19.37
2022-09-07T13:54:56.621Z,19.34
2022-09-07T13:59:59.611Z,19.33
2022-09-07T14:05:04.945Z,19.33
2022-09-07T14:10:20.053Z,19.32
2022-09-07T14:15:25.773Z,19.32
2022-09-07T14:20:29.078Z,19.31
2022-09-07T14:26:15.920Z,19.32
2022-09-07T14:30:55.077Z,19.31
2022-09-07T14:35:59.359Z,19.27
2022-09-07T14:41:06.999Z,19.28
2022-09-07T14:46:18.180Z,19.36
2022-09-07T14:51:32.734Z,19.38
2022-09-07T14:56:40.974Z,19.30
2022-09-07T15:01:46.911Z,19.19
2022-09-07T15:07:05.565Z,19.05
2022-09-07T15:12:29.740Z,18.91
2022-09-07T15:17:42.947Z,18.66
2022-09-07T15:22:46.251Z,18.48
2022-09-07T15:27:49.180Z,18.43
2022-09-07T15:32:52.563Z,18.43
2022-09-07T15:38:04.285Z,18.47
2022-09-07T15:43:20.029Z,18.51
2022-09-07T15:48:25.248Z,18.56
2022-09-07T15:58:55.494Z,18.79
2022-09-07T16:04:00.440Z,18.93
2022-09-07T16:09:06.220Z,18.75
2022-09-07T16:14:12.659Z,18.54
2022-09-07T16:19:20.105Z,18.31
2022-09-07T16:24:23.257Z,18.09
2022-09-07T16:29:26.138Z,17.88
2022-09-07T16:34:29.743Z,17.68
2022-09-07T16:39:33.017Z,17.46
2022-09-07T16:44:35.833Z,17.23
2022-09-07T16:49:39.216Z,17.02
2022-09-07T16:54:42.245Z,16.80
2022-09-07T16:59:45.310Z,16.59
2022-09-07T17:04:48.172Z,16.40
2022-09-07T17:09:50.982Z,16.21
2022-09-07T17:14:54.106Z,16.05
2022-09-07T17:19:58.319Z,15.86
2022-09-07T17:25:01.048Z,15.70
2022-09-07T17:30:06.626Z,15.54
2022-09-07T17:35:10.427Z,15.39
2022-09-07T17:40:13.255Z,15.24
2022-09-07T17:45:16.197Z,15.09
2022-09-07T17:50:18.985Z,14.92
2022-09-07T17:55:22.460Z,14.79
2022-09-07T18:00:25.820Z,14.65
2022-09-07T18:05:28.661Z,14.48
2022-09-07T18:15:58.834Z,14.16
2022-09-07T18:21:03.391Z,14.09
2022-09-07T18:26:10.460Z,14.01
2022-09-07T18:31:13.330Z,13.92
2022-09-07T18:36:16.089Z,13.83
2022-09-07T18:41:20.389Z,13.73
2022-09-07T18:46:25.557Z,13.62
2022-09-07T18:51:30.909Z,13.50
2022-09-07T18:56:33.837Z,13.40
2022-09-07T19:01:38.160Z,13.30
2022-09-07T19:06:42.488Z,13.20
2022-09-07T19:11:45.298Z,13.09
2022-09-07T19:16:48.146Z,13.00
2022-09-07T19:21:53.529Z,12.90
2022-09-07T19:27:00.171Z,12.81
2022-09-07T19:32:08.004Z,12.69
2022-09-07T19:37:12.629Z,12.59
2022-09-07T19:42:15.467Z,12.50
2022-09-07T19:47:18.877Z,12.39
2022-09-07T19:52:23.491Z,12.28
2022-09-07T19:57:28.866Z,12.16
2022-09-07T20:02:31.781Z,12.02
2022-09-07T20:07:34.749Z,11.89
2022-09-07T20:12:37.518Z,11.74
2022-09-07T20:17:40.691Z,11.64
2022-09-07T20:22:43.441Z,11.57
2022-09-07T20:27:46.219Z,11.52
2022-09-07T20:32:49.370Z,11.48
2022-09-07T20:37:52.213Z,11.43
2022-09-07T20:42:55.193Z,11.36
2022-09-07T20:48:00.067Z,11.28
2022-09-07T20:53:04.389Z,11.20
2022-09-07T20:58:07.365Z,11.11
2022-09-07T21:03:10.684Z,11.04
2022-09-07T21:08:14.380Z,11.00
2022-09-07T21:13:17.691Z,10.96
2022-09-07T21:18:20.438Z,10.90
2022-09-07T21:23:24.303Z,10.84
2022-09-07T21:28:28.131Z,10.79
2022-09-07T21:33:35.321Z,10.72
2022-09-07T21:38:39.595Z,10.65
2022-09-07T21:43:42.450Z,10.60
2022-09-07T21:48:46.621Z,10.53
2022-09-07T21:53:58.230Z,10.46
2022-09-07T21:59:02.466Z,10.41
2022-09-07T22:04:07.117Z,10.38
2022-09-07T22:09:10.016Z,10.38
2022-09-07T22:14:13.764Z,10.38
2022-09-07T22:19:16.781Z,10.36
2022-09-07T22:24:19.524Z,10.32
2022-09-07T22:29:22.349Z,10.28
2022-09-07T22:34:25.131Z,10.22
2022-09-07T22:39:29.335Z,10.17
2022-09-07T22:44:32.860Z,10.13
2022-09-07T22:49:36.204Z,10.08
2022-09-07T22:54:38.951Z,10.04
2022-09-07T22:59:41.680Z,10.00
2022-09-07T23:04:45.118Z,9.95
2022-09-07T23:09:48.473Z,9.92
2022-09-07T23:14:51.227Z,9.92
2022-09-07T23:19:53.945Z,9.95
2022-09-07T23:24:56.695Z,9.99
2022-09-07T23:29:59.478Z,9.99
2022-09-07T23:35:03.523Z,9.98
2022-09-07T23:40:08.697Z,9.96
2022-09-07T23:45:11.477Z,9.95
2022-09-07T23:50:14.601Z,9.95
2022-09-07T23:55:17.488Z,9.94
